createdAt,value
2023-05-30T00:02:52.892Z,100904.84
2023-05-30T00:06:55.125Z,100909.41
2023-05-30T00:10:57.812Z,100901.06
2023-05-30T00:15:02.472Z,100893.84
2023-05-30T00:19:05.666Z,100899.78
2023-05-30T00:23:08.044Z,100909.19
2023-05-30T00:27:11.967Z,100906.13
2023-05-30T00:31:14.170Z,100906.13
2023-05-30T00:35:16.510Z,100907.59
2023-05-30T00:39:19.213Z,100905.91
2023-05-30T00:43:23.037Z,100899.25
2023-05-30T00:47:27.183Z,100893.97
2023-05-30T00:51:29.666Z,100889.72
2023-05-30T00:55:31.813Z,100898.38
2023-05-30T00:59:34.792Z,100900.09
2023-05-30T01:03:39.010Z,100902.31
2023-05-30T01:07:49.176Z,100900.28
2023-05-30T01:12:19.774Z,100899.75
2023-05-30T01:16:26.553Z,100904.69
2023-05-30T01:20:34.785Z,100913.34
2023-05-30T01:24:43.374Z,100909.53
2023-05-30T01:28:48.028Z,100916.06
2023-05-30T01:32:50.737Z,100915.44
2023-05-30T01:36:53.059Z,100927.13
2023-05-30T01:41:00.790Z,100928.53
2023-05-30T01:45:12.270Z,100926.00
2023-05-30T01:49:22.940Z,100926.63
2023-05-30T01:53:35.167Z,100932.88
2023-05-30T01:57:44.284Z,100922.53
2023-05-30T02:01:48.698Z,100922.56
2023-05-30T02:05:50.924Z,100938.72
2023-05-30T02:09:53.177Z,100948.09
2023-05-30T02:13:55.350Z,100959.88
2023-05-30T02:18:00.615Z,100952.13
2023-05-30T02:22:03.393Z,100948.28
2023-05-30T02:26:06.228Z,100944.19
2023-05-30T02:30:08.779Z,100943.28
2023-05-30T02:34:11.334Z,100941.00
2023-05-30T02:38:14.042Z,100941.41
2023-05-30T02:42:17.074Z,100948.19
2023-05-30T02:46:20.392Z,100945.06
2023-05-30T02:50:23.783Z,100957.72
2023-05-30T02:54:26.223Z,100959.31
2023-05-30T02:59:00.610Z,100965.94
2023-05-30T03:03:13.100Z,100968.94
2023-05-30T03:07:20.185Z,100966.22
2023-05-30T03:11:23.181Z,100974.03
2023-05-30T03:15:27.953Z,100971.88
2023-05-30T03:19:32.238Z,100965.75
2023-05-30T03:23:35.917Z,100969.44
2023-05-30T03:27:38.547Z,100974.50
2023-05-30T03:31:41.820Z,100985.06
2023-05-30T03:35:46.297Z,100982.34
2023-05-30T03:39:48.658Z,100983.91
2023-05-30T03:43:50.937Z,100980.16
2023-05-30T03:47:54.397Z,100979.97
2023-05-30T03:51:57.040Z,100984.59
2023-05-30T03:56:00.137Z,100990.34
2023-05-30T04:00:02.940Z,100986.28
2023-05-30T04:04:14.819Z,100998.34
2023-05-30T04:08:17.316Z,101004.63
2023-05-30T04:12:19.473Z,100999.84
2023-05-30T04:16:21.919Z,101005.50
2023-05-30T04:20:25.284Z,101014.75
2023-05-30T04:24:31.050Z,101017.00
2023-05-30T04:28:34.222Z,101020.66
2023-05-30T04:32:36.334Z,101023.66
2023-05-30T04:36:39.596Z,101026.06
2023-05-30T04:40:42.696Z,101028.16
2023-05-30T04:44:46.297Z,101030.59
2023-05-30T04:48:53.461Z,101034.63
2023-05-30T04:52:55.891Z,101037.94
2023-05-30T04:56:58.877Z,101040.06
2023-05-30T05:01:02.523Z,101037.66
2023-05-30T05:05:07.456Z,101036.44
2023-05-30T05:09:09.835Z,101042.47
2023-05-30T05:13:12.011Z,101044.59
2023-05-30T05:17:15.031Z,101046.00
2023-05-30T05:21:17.588Z,101041.88
2023-05-30T05:25:20.065Z,101059.56
2023-05-30T05:29:22.596Z,101064.88
2023-05-30T05:33:25.006Z,101065.78
2023-05-30T05:37:27.188Z,101057.41
2023-05-30T05:41:29.304Z,101065.06
2023-05-30T05:45:31.625Z,101075.84
2023-05-30T05:49:34.296Z,101063.44
2023-05-30T05:53:36.529Z,101071.38
2023-05-30T05:57:38.753Z,101081.28
2023-05-30T06:01:41.146Z,101084.66
2023-05-30T06:05:43.483Z,101081.97
2023-05-30T06:09:45.774Z,101091.34
2023-05-30T06:13:48.314Z,101088.22
2023-05-30T06:17:51.367Z,101084.78
2023-05-30T06:21:54.061Z,101092.06
2023-05-30T06:25:56.587Z,101094.53
2023-05-30T06:29:58.843Z,101092.13
2023-05-30T06:34:01.698Z,101098.03
2023-05-30T06:38:04.155Z,101107.38
2023-05-30T06:42:07.291Z,101105.91
2023-05-30T06:46:14.076Z,101099.53
2023-05-30T06:50:19.445Z,101097.94
2023-05-30T06:54:22.154Z,101106.75
2023-05-30T06:58:24.765Z,101103.59
2023-05-30T07:02:27.219Z,101097.31
2023-05-30T07:06:29.449Z,101101.88
2023-05-30T07:10:31.722Z,101099.97
2023-05-30T07:14:34.204Z,101106.66
2023-05-30T07:18:36.897Z,101110.59
2023-05-30T07:22:39.648Z,101110.41
2023-05-30T07:26:41.752Z,101095.50
2023-05-30T07:30:43.839Z,101102.00
2023-05-30T07:34:46.164Z,101105.63
2023-05-30T07:38:49.158Z,101099.91
2023-05-30T07:42:51.732Z,101108.22
2023-05-30T07:46:53.860Z,101092.25
2023-05-30T07:50:56.289Z,101099.94
2023-05-30T07:54:58.848Z,101097.94
2023-05-30T07:59:00.947Z,101109.44
2023-05-30T08:03:03.036Z,101104.25
2023-05-30T08:07:05.688Z,101097.38
2023-05-30T08:11:07.877Z,101102.16
2023-05-30T08:15:10.656Z,101102.31
2023-05-30T08:19:13.408Z,101105.84
2023-05-30T08:23:15.467Z,101114.13
2023-05-30T08:27:18.696Z,101111.16
2023-05-30T08:31:21.227Z,101109.50
2023-05-30T08:35:23.326Z,101108.06
2023-05-30T08:39:25.510Z,101114.97
2023-05-30T08:43:27.747Z,101109.22
2023-05-30T08:47:29.955Z,101109.19
2023-05-30T08:51:33.633Z,101099.19
2023-05-30T08:55:55.706Z,101110.78
2023-05-30T08:59:59.155Z,101117.78
2023-05-30T09:04:05.916Z,101109.19
2023-05-30T09:08:09.424Z,101114.31
2023-05-30T09:12:11.744Z,101113.09
2023-05-30T09:16:14.238Z,101122.91
2023-05-30T09:20:18.539Z,101128.41
2023-05-30T09:24:21.249Z,101127.06
2023-05-30T09:28:28.055Z,101128.44
2023-05-30T09:32:33.127Z,101132.97
2023-05-30T09:36:35.281Z,101125.38
2023-05-30T09:40:37.524Z,101134.09
2023-05-30T09:44:52.935Z,101124.84
2023-05-30T09:48:56.271Z,101130.63
2023-05-30T09:53:01.030Z,101136.63
2023-05-30T09:57:04.022Z,101114.34
2023-05-30T10:01:06.103Z,101123.00
2023-05-30T10:05:27.659Z,101127.56
2023-05-30T10:09:30.005Z,101126.72
2023-05-30T10:13:31.975Z,101127.09
2023-05-30T10:17:37.461Z,101126.13
2023-05-30T10:21:40.234Z,101120.22
2023-05-30T10:25:51.984Z,101122.38
2023-05-30T10:30:16.541Z,101125.34
2023-05-30T10:34:22.507Z,101120.50
2023-05-30T10:38:28.544Z,101119.56
2023-05-30T10:42:39.669Z,101119.13
2023-05-30T10:46:58.434Z,101121.50
2023-05-30T10:51:01.638Z,101118.25
2023-05-30T10:55:11.621Z,101114.28
2023-05-30T11:03:37.066Z,101121.44
2023-05-30T11:07:41.533Z,101118.19
2023-05-30T11:11:54.837Z,101108.31
2023-05-30T11:15:57.055Z,101114.09
2023-05-30T11:20:13.749Z,101120.41
2023-05-30T11:28:34.657Z,101118.56
2023-05-30T11:32:38.449Z,101130.34
2023-05-30T11:36:41.077Z,101116.19
2023-05-30T11:40:44.183Z,101118.44
2023-05-30T11:44:46.698Z,101113.56
2023-05-30T11:48:48.942Z,101116.91
2023-05-30T11:52:51.132Z,101122.06
2023-05-30T11:56:53.692Z,101115.16
2023-05-30T12:00:56.012Z,101109.59
2023-05-30T12:05:05.306Z,101108.78
2023-05-30T12:09:07.398Z,101112.34
2023-05-30T12:13:09.976Z,101115.16
2023-05-30T12:17:17.556Z,101114.31
2023-05-30T12:21:20.277Z,101103.94
2023-05-30T12:25:30.148Z,101114.19
2023-05-30T12:29:35.881Z,101109.59
2023-05-30T12:33:37.936Z,101105.41
2023-05-30T12:37:40.509Z,101101.63
2023-05-30T12:41:42.608Z,101117.84
2023-05-30T12:45:47.729Z,101117.59
2023-05-30T12:49:50.197Z,101115.81
2023-05-30T12:53:54.486Z,101107.34
2023-05-30T12:57:58.901Z,101118.41
2023-05-30T13:02:01.333Z,101116.03
2023-05-30T13:06:04.030Z,101117.84
2023-05-30T13:10:07.035Z,101117.09
2023-05-30T13:14:09.197Z,101111.66
2023-05-30T13:18:11.551Z,101109.47
2023-05-30T13:22:13.827Z,101121.72
2023-05-30T13:26:16.122Z,101128.88
2023-05-30T13:30:18.380Z,101128.53
2023-05-30T13:34:21.801Z,101123.56
2023-05-30T13:38:23.955Z,101116.00
2023-05-30T13:42:26.765Z,101107.91
2023-05-30T13:46:28.825Z,101124.78
2023-05-30T13:50:31.434Z,101113.72
2023-05-30T13:54:33.516Z,101107.09
2023-05-30T13:58:35.957Z,101107.31
2023-05-30T14:02:38.882Z,101118.63
2023-05-30T14:06:41.275Z,101119.63
2023-05-30T14:10:45.763Z,101109.34
2023-05-30T14:14:48.827Z,101115.63
2023-05-30T14:18:50.858Z,101116.28
2023-05-30T14:22:52.925Z,101118.00
2023-05-30T14:26:55.000Z,101106.47
2023-05-30T14:30:57.040Z,101105.25
2023-05-30T14:34:59.132Z,101108.31
2023-05-30T14:39:01.247Z,101103.59
2023-05-30T14:43:03.452Z,101104.53
2023-05-30T14:47:05.647Z,101101.31
2023-05-30T14:51:08.939Z,101101.78
2023-05-30T14:55:11.201Z,101103.59
2023-05-30T14:59:13.187Z,101101.38
2023-05-30T15:03:16.692Z,101099.47
2023-05-30T15:07:19.036Z,101103.28
2023-05-30T15:11:23.165Z,101105.28
2023-05-30T15:15:25.396Z,101096.47
2023-05-30T15:19:27.543Z,101092.41
2023-05-30T15:23:29.601Z,101092.13
2023-05-30T15:27:31.771Z,101088.16
2023-05-30T15:31:33.869Z,101095.13
2023-05-30T15:35:36.072Z,101092.72
2023-05-30T15:39:38.615Z,101090.50
2023-05-30T15:43:40.886Z,101083.59
2023-05-30T15:47:43.042Z,101088.56
2023-05-30T15:51:45.496Z,101085.69
2023-05-30T15:55:47.652Z,101087.94
2023-05-30T15:59:49.779Z,101091.28
2023-05-30T16:03:55.530Z,101092.63
2023-05-30T16:07:59.858Z,101091.84
2023-05-30T16:12:02.674Z,101104.09
2023-05-30T16:16:05.757Z,101095.72
2023-05-30T16:20:08.596Z,101100.25
2023-05-30T16:24:10.725Z,101101.72
2023-05-30T16:28:13.411Z,101102.44
2023-05-30T16:32:15.650Z,101114.13
2023-05-30T16:36:20.179Z,101108.38
2023-05-30T16:40:22.294Z,101116.25
2023-05-30T16:44:25.752Z,101125.13
2023-05-30T16:48:27.757Z,101124.94
2023-05-30T16:52:29.944Z,101130.00
2023-05-30T16:56:32.137Z,101132.81
2023-05-30T17:00:34.300Z,101138.44
2023-05-30T17:04:36.601Z,101150.09
2023-05-30T17:08:39.542Z,101147.25
2023-05-30T17:12:41.877Z,101141.75
2023-05-30T17:16:44.081Z,101150.59
2023-05-30T17:20:47.225Z,101164.88
2023-05-30T17:24:49.395Z,101170.16
2023-05-30T17:28:52.930Z,101165.22
2023-05-30T17:32:55.139Z,101162.63
2023-05-30T17:36:57.504Z,101164.88
2023-05-30T17:40:59.739Z,101171.47
2023-05-30T17:45:03.087Z,101169.88
2023-05-30T17:49:05.376Z,101180.78
2023-05-30T17:53:07.599Z,101179.72
2023-05-30T17:57:10.279Z,101176.75
2023-05-30T18:01:12.627Z,101177.53
2023-05-30T18:05:17.036Z,101184.88
2023-05-30T18:09:19.825Z,101192.88
2023-05-30T18:13:22.411Z,101194.41
2023-05-30T18:17:24.669Z,101199.03
2023-05-30T18:21:27.763Z,101201.03
2023-05-30T18:25:30.126Z,101210.03
2023-05-30T18:29:36.098Z,101208.72
2023-05-30T18:33:38.193Z,101216.19
2023-05-30T18:37:40.576Z,101218.00
2023-05-30T18:41:43.752Z,101223.66
2023-05-30T18:45:46.380Z,101227.66
2023-05-30T18:49:49.291Z,101229.81
2023-05-30T18:53:51.673Z,101230.75
2023-05-30T18:57:54.922Z,101237.88
2023-05-30T19:01:58.235Z,101238.81
2023-05-30T19:06:00.727Z,101250.69
2023-05-30T19:10:03.135Z,101250.56
2023-05-30T19:14:05.388Z,101256.47
2023-05-30T19:18:07.901Z,101277.09
2023-05-30T19:22:10.048Z,101270.38
2023-05-30T19:26:12.486Z,101271.50
2023-05-30T19:30:15.335Z,101269.81
2023-05-30T19:34:17.676Z,101281.41
2023-05-30T19:38:20.388Z,101276.00
2023-05-30T19:42:22.557Z,101282.94
2023-05-30T19:46:29.289Z,101274.00
2023-05-30T19:50:31.367Z,101298.72
2023-05-30T19:54:33.743Z,101294.03
2023-05-30T19:58:36.236Z,101295.81
2023-05-30T20:02:40.078Z,101300.34
2023-05-30T20:06:41.954Z,101298.38
2023-05-30T20:10:44.070Z,101299.59
2023-05-30T20:14:46.187Z,101304.84
2023-05-30T20:18:51.521Z,101310.03
2023-05-30T20:22:54.010Z,101302.88
2023-05-30T20:26:56.606Z,101309.78
2023-05-30T20:31:00.111Z,101311.09
2023-05-30T20:35:03.124Z,101310.47
2023-05-30T20:39:06.117Z,101306.78
2023-05-30T20:43:08.295Z,101314.97
2023-05-30T20:47:11.599Z,101325.66
2023-05-30T20:51:13.988Z,101327.72
2023-05-30T20:55:15.960Z,101327.09
2023-05-30T20:59:18.239Z,101328.94
2023-05-30T21:03:20.480Z,101331.13
2023-05-30T21:07:23.305Z,101341.97
2023-05-30T21:11:25.595Z,101342.34
2023-05-30T21:15:28.082Z,101339.75
2023-05-30T21:19:30.460Z,101337.69
2023-05-30T21:23:32.934Z,101346.06
2023-05-30T21:27:35.519Z,101352.28
2023-05-30T21:31:38.352Z,101352.00
2023-05-30T21:35:40.672Z,101351.34
2023-05-30T21:39:43.279Z,101343.13
2023-05-30T21:43:46.475Z,101363.06
2023-05-30T21:47:48.862Z,101366.25
2023-05-30T21:51:51.037Z,101360.63
2023-05-30T21:55:53.646Z,101363.19
2023-05-30T21:59:56.235Z,101371.72
2023-05-30T22:03:58.689Z,101370.25
2023-05-30T22:08:00.878Z,101368.13
2023-05-30T22:12:03.866Z,101377.59
2023-05-30T22:16:06.613Z,101376.56
2023-05-30T22:20:09.618Z,101383.97
2023-05-30T22:24:12.042Z,101385.94
2023-05-30T22:28:14.608Z,101393.25
2023-05-30T22:32:16.818Z,101390.16
2023-05-30T22:36:19.382Z,101391.69
2023-05-30T22:40:21.859Z,101394.31
2023-05-30T22:44:24.547Z,101383.41
2023-05-30T22:48:26.730Z,101391.63
2023-05-30T22:52:29.112Z,101378.81
2023-05-30T22:56:31.391Z,101386.28
2023-05-30T23:00:33.867Z,101388.28
2023-05-30T23:04:37.424Z,101384.66
2023-05-30T23:08:39.668Z,101391.38
2023-05-30T23:12:42.036Z,101380.91
2023-05-30T23:16:44.327Z,101376.41
2023-05-30T23:20:46.809Z,101364.13
2023-05-30T23:24:49.360Z,101357.97
2023-05-30T23:28:51.600Z,101344.81
2023-05-30T23:32:54.018Z,101351.56
2023-05-30T23:36:56.238Z,101340.28
2023-05-30T23:40:58.791Z,101340.53
2023-05-30T23:45:01.170Z,101347.84
2023-05-30T23:49:03.494Z,101349.09
2023-05-30T23:53:05.856Z,101344.03
2023-05-30T23:57:08.765Z,101356.38
